sensor_id;sensor_type;location;lat;lon;timestamp;P1;durP1;ratioP1;P2;durP2;ratioP2
22711;SDS011;11523;50.390;8.072;2023-04-15T00:01:26;11.35;;;4.95;;
22711;SDS011;11523;50.390;8.072;2023-04-15T00:03:52;8.77;;;4.75;;
22711;SDS011;11523;50.390;8.072;2023-04-15T00:06:18;10.50;;;5.32;;
22711;SDS011;11523;50.390;8.072;2023-04-15T00:08:44;8.15;;;5.47;;
22711;SDS011;11523;50.390;8.072;2023-04-15T00:11:11;9.38;;;5.15;;
22711;SDS011;11523;50.390;8.072;2023-04-15T00:13:37;10.38;;;5.25;;
22711;SDS011;11523;50.390;8.072;2023-04-15T00:16:03;10.52;;;5.35;;
22711;SDS011;11523;50.390;8.072;2023-04-15T00:18:30;7.85;;;4.85;;
22711;SDS011;11523;50.390;8.072;2023-04-15T00:20:56;8.07;;;5.43;;
22711;SDS011;11523;50.390;8.072;2023-04-15T00:23:22;8.73;;;5.00;;
22711;SDS011;11523;50.390;8.072;2023-04-15T00:25:48;8.05;;;5.38;;
22711;SDS011;11523;50.390;8.072;2023-04-15T00:28:15;9.10;;;5.07;;
22711;SDS011;11523;50.390;8.072;2023-04-15T00:30:41;12.15;;;5.50;;
22711;SDS011;11523;50.390;8.072;2023-04-15T00:33:07;7.25;;;4.68;;
22711;SDS011;11523;50.390;8.072;2023-04-15T00:35:33;10.10;;;4.90;;
22711;SDS011;11523;50.390;8.072;2023-04-15T00:38:01;8.77;;;5.53;;
22711;SDS011;11523;50.390;8.072;2023-04-15T00:40:27;10.52;;;6.03;;
22711;SDS011;11523;50.390;8.072;2023-04-15T00:42:53;8.50;;;4.90;;
22711;SDS011;11523;50.390;8.072;2023-04-15T00:45:19;9.85;;;4.75;;
22711;SDS011;11523;50.390;8.072;2023-04-15T00:47:45;8.52;;;5.43;;
22711;SDS011;11523;50.390;8.072;2023-04-15T00:50:11;8.45;;;4.75;;
22711;SDS011;11523;50.390;8.072;2023-04-15T00:52:37;8.77;;;4.82;;
22711;SDS011;11523;50.390;8.072;2023-04-15T00:55:04;9.02;;;5.47;;
22711;SDS011;11523;50.390;8.072;2023-04-15T00:57:30;10.07;;;4.80;;
22711;SDS011;11523;50.390;8.072;2023-04-15T00:59:56;9.70;;;4.55;;
22711;SDS011;11523;50.390;8.072;2023-04-15T01:02:23;8.02;;;4.53;;
22711;SDS011;11523;50.390;8.072;2023-04-15T01:04:49;9.68;;;4.65;;
22711;SDS011;11523;50.390;8.072;2023-04-15T01:07:15;6.57;;;4.60;;
22711;SDS011;11523;50.390;8.072;2023-04-15T01:09:41;6.07;;;4.05;;
22711;SDS011;11523;50.390;8.072;2023-04-15T01:12:07;9.35;;;4.78;;
22711;SDS011;11523;50.390;8.072;2023-04-15T01:14:35;7.30;;;4.50;;
22711;SDS011;11523;50.390;8.072;2023-04-15T01:17:01;9.40;;;4.63;;
22711;SDS011;11523;50.390;8.072;2023-04-15T01:19:27;6.30;;;4.32;;
22711;SDS011;11523;50.390;8.072;2023-04-15T01:21:53;9.45;;;4.47;;
22711;SDS011;11523;50.390;8.072;2023-04-15T01:24:19;8.80;;;4.55;;
22711;SDS011;11523;50.390;8.072;2023-04-15T01:26:45;9.65;;;5.68;;
22711;SDS011;11523;50.390;8.072;2023-04-15T01:29:11;7.72;;;4.85;;
22711;SDS011;11523;50.390;8.072;2023-04-15T01:31:37;8.85;;;4.65;;
22711;SDS011;11523;50.390;8.072;2023-04-15T01:34:03;10.18;;;4.90;;
22711;SDS011;11523;50.390;8.072;2023-04-15T01:36:30;7.95;;;4.75;;
22711;SDS011;11523;50.390;8.072;2023-04-15T01:38:56;9.82;;;4.47;;
22711;SDS011;11523;50.390;8.072;2023-04-15T01:41:26;9.80;;;4.90;;
22711;SDS011;11523;50.390;8.072;2023-04-15T01:43:52;9.43;;;4.65;;
22711;SDS011;11523;50.390;8.072;2023-04-15T01:46:19;12.57;;;5.07;;
22711;SDS011;11523;50.390;8.072;2023-04-15T01:48:45;9.07;;;5.13;;
22711;SDS011;11523;50.390;8.072;2023-04-15T01:51:11;7.97;;;4.75;;
22711;SDS011;11523;50.390;8.072;2023-04-15T01:53:37;6.97;;;4.72;;
22711;SDS011;11523;50.390;8.072;2023-04-15T01:56:03;8.45;;;4.55;;
22711;SDS011;11523;50.390;8.072;2023-04-15T01:58:29;9.88;;;4.90;;
22711;SDS011;11523;50.390;8.072;2023-04-15T02:00:55;9.55;;;4.85;;
22711;SDS011;11523;50.390;8.072;2023-04-15T02:03:21;9.63;;;4.68;;
22711;SDS011;11523;50.390;8.072;2023-04-15T02:05:47;7.65;;;4.80;;
22711;SDS011;11523;50.390;8.072;2023-04-15T02:08:14;6.80;;;4.57;;
22711;SDS011;11523;50.390;8.072;2023-04-15T02:10:41;6.45;;;4.28;;
22711;SDS011;11523;50.390;8.072;2023-04-15T02:13:07;7.45;;;4.80;;
22711;SDS011;11523;50.390;8.072;2023-04-15T02:15:33;9.88;;;4.97;;
22711;SDS011;11523;50.390;8.072;2023-04-15T02:17:59;8.15;;;4.40;;
22711;SDS011;11523;50.390;8.072;2023-04-15T02:20:25;8.68;;;5.10;;
22711;SDS011;11523;50.390;8.072;2023-04-15T02:22:51;7.30;;;4.70;;
22711;SDS011;11523;50.390;8.072;2023-04-15T02:25:17;9.80;;;5.40;;
22711;SDS011;11523;50.390;8.072;2023-04-15T02:27:44;10.07;;;4.82;;
22711;SDS011;11523;50.390;8.072;2023-04-15T02:30:10;8.65;;;4.75;;
22711;SDS011;11523;50.390;8.072;2023-04-15T02:32:37;8.30;;;4.57;;
22711;SDS011;11523;50.390;8.072;2023-04-15T02:35:03;11.57;;;5.15;;
22711;SDS011;11523;50.390;8.072;2023-04-15T02:37:29;10.10;;;4.50;;
22711;SDS011;11523;50.390;8.072;2023-04-15T02:39:55;5.93;;;4.43;;
22711;SDS011;11523;50.390;8.072;2023-04-15T02:42:21;8.57;;;4.65;;
22711;SDS011;11523;50.390;8.072;2023-04-15T02:44:47;7.70;;;4.65;;
22711;SDS011;11523;50.390;8.072;2023-04-15T02:47:13;6.88;;;4.65;;
22711;SDS011;11523;50.390;8.072;2023-04-15T02:49:40;6.28;;;4.45;;
22711;SDS011;11523;50.390;8.072;2023-04-15T02:52:05;6.00;;;4.63;;
22711;SDS011;11523;50.390;8.072;2023-04-15T02:54:31;6.78;;;4.68;;
22711;SDS011;11523;50.390;8.072;2023-04-15T02:56:58;8.23;;;4.65;;
22711;SDS011;11523;50.390;8.072;2023-04-15T02:59:24;9.48;;;4.65;;
22711;SDS011;11523;50.390;8.072;2023-04-15T03:01:50;10.05;;;5.82;;
22711;SDS011;11523;50.390;8.072;2023-04-15T03:04:16;6.53;;;4.57;;
22711;SDS011;11523;50.390;8.072;2023-04-15T03:06:41;7.95;;;4.70;;
22711;SDS011;11523;50.390;8.072;2023-04-15T03:09:07;9.60;;;4.72;;
22711;SDS011;11523;50.390;8.072;2023-04-15T03:11:34;9.32;;;4.78;;
22711;SDS011;11523;50.390;8.072;2023-04-15T03:14:04;7.28;;;4.35;;
22711;SDS011;11523;50.390;8.072;2023-04-15T03:16:30;6.65;;;4.50;;
22711;SDS011;11523;50.390;8.072;2023-04-15T03:18:56;7.55;;;4.63;;
22711;SDS011;11523;50.390;8.072;2023-04-15T03:21:22;5.95;;;4.10;;
22711;SDS011;11523;50.390;8.072;2023-04-15T03:23:48;7.65;;;4.60;;
22711;SDS011;11523;50.390;8.072;2023-04-15T03:26:27;9.80;;;4.10;;
22711;SDS011;11523;50.390;8.072;2023-04-15T03:28:53;7.28;;;4.53;;
22711;SDS011;11523;50.390;8.072;2023-04-15T03:31:20;6.00;;;4.35;;
22711;SDS011;11523;50.390;8.072;2023-04-15T03:33:46;9.55;;;4.60;;
22711;SDS011;11523;50.390;8.072;2023-04-15T03:36:12;8.52;;;4.75;;
22711;SDS011;11523;50.390;8.072;2023-04-15T03:38:38;6.20;;;4.45;;
22711;SDS011;11523;50.390;8.072;2023-04-15T03:41:03;5.43;;;4.35;;
22711;SDS011;11523;50.390;8.072;2023-04-15T03:43:29;8.52;;;5.15;;
22711;SDS011;11523;50.390;8.072;2023-04-15T03:45:55;6.38;;;4.07;;
22711;SDS011;11523;50.390;8.072;2023-04-15T03:48:21;6.63;;;4.25;;
22711;SDS011;11523;50.390;8.072;2023-04-15T03:50:47;5.43;;;4.30;;
22711;SDS011;11523;50.390;8.072;2023-04-15T03:53:14;5.35;;;4.03;;
22711;SDS011;11523;50.390;8.072;2023-04-15T03:55:40;7.05;;;4.68;;
22711;SDS011;11523;50.390;8.072;2023-04-15T03:58:05;6.88;;;3.92;;
22711;SDS011;11523;50.390;8.072;2023-04-15T04:00:31;7.90;;;3.90;;
22711;SDS011;11523;50.390;8.072;2023-04-15T04:02:57;8.27;;;4.03;;
22711;SDS011;11523;50.390;8.072;2023-04-15T04:05:23;8.93;;;4.45;;
22711;SDS011;11523;50.390;8.072;2023-04-15T04:07:49;6.30;;;3.90;;
22711;SDS011;11523;50.390;8.072;2023-04-15T04:10:15;5.57;;;3.92;;
22711;SDS011;11523;50.390;8.072;2023-04-15T04:12:42;5.45;;;3.88;;
22711;SDS011;11523;50.390;8.072;2023-04-15T04:15:08;4.72;;;3.30;;
22711;SDS011;11523;50.390;8.072;2023-04-15T04:17:35;8.43;;;3.85;;
22711;SDS011;11523;50.390;8.072;2023-04-15T04:20:01;6.78;;;3.55;;
22711;SDS011;11523;50.390;8.072;2023-04-15T04:22:27;9.15;;;4.20;;
22711;SDS011;11523;50.390;8.072;2023-04-15T04:24:53;4.90;;;3.65;;
22711;SDS011;11523;50.390;8.072;2023-04-15T04:27:19;6.10;;;3.70;;
22711;SDS011;11523;50.390;8.072;2023-04-15T04:29:45;7.40;;;3.53;;
22711;SDS011;11523;50.390;8.072;2023-04-15T04:32:11;6.18;;;4.07;;
22711;SDS011;11523;50.390;8.072;2023-04-15T04:34:37;10.23;;;4.00;;
22711;SDS011;11523;50.390;8.072;2023-04-15T04:37:03;9.07;;;4.05;;
22711;SDS011;11523;50.390;8.072;2023-04-15T04:39:29;6.70;;;4.30;;
22711;SDS011;11523;50.390;8.072;2023-04-15T04:41:56;8.00;;;4.43;;
22711;SDS011;11523;50.390;8.072;2023-04-15T04:44:22;5.05;;;3.83;;
22711;SDS011;11523;50.390;8.072;2023-04-15T04:46:48;6.38;;;3.80;;
22711;SDS011;11523;50.390;8.072;2023-04-15T04:49:14;9.02;;;4.20;;
22711;SDS011;11523;50.390;8.072;2023-04-15T04:51:40;7.97;;;4.13;;
22711;SDS011;11523;50.390;8.072;2023-04-15T04:54:20;5.43;;;4.35;;
22711;SDS011;11523;50.390;8.072;2023-04-15T04:56:46;7.15;;;4.45;;
22711;SDS011;11523;50.390;8.072;2023-04-15T04:59:12;4.90;;;3.80;;
22711;SDS011;11523;50.390;8.072;2023-04-15T05:01:38;6.50;;;4.07;;
22711;SDS011;11523;50.390;8.072;2023-04-15T05:04:04;5.75;;;3.90;;
22711;SDS011;11523;50.390;8.072;2023-04-15T05:06:31;5.50;;;4.20;;
22711;SDS011;11523;50.390;8.072;2023-04-15T05:08:57;8.38;;;4.05;;
22711;SDS011;11523;50.390;8.072;2023-04-15T05:11:23;5.50;;;3.92;;
22711;SDS011;11523;50.390;8.072;2023-04-15T05:13:49;6.28;;;3.60;;
22711;SDS011;11523;50.390;8.072;2023-04-15T05:16:15;6.45;;;4.00;;
22711;SDS011;11523;50.390;8.072;2023-04-15T05:18:41;5.35;;;3.80;;
22711;SDS011;11523;50.390;8.072;2023-04-15T05:21:07;10.93;;;4.28;;
22711;SDS011;11523;50.390;8.072;2023-04-15T05:23:33;7.22;;;3.95;;
22711;SDS011;11523;50.390;8.072;2023-04-15T05:25:59;5.45;;;3.90;;
22711;SDS011;11523;50.390;8.072;2023-04-15T05:28:25;6.85;;;3.97;;
22711;SDS011;11523;50.390;8.072;2023-04-15T05:30:51;5.45;;;3.88;;
22711;SDS011;11523;50.390;8.072;2023-04-15T05:33:17;7.38;;;4.03;;
22711;SDS011;11523;50.390;8.072;2023-04-15T05:35:43;9.57;;;4.20;;
22711;SDS011;11523;50.390;8.072;2023-04-15T05:38:09;5.90;;;4.05;;
22711;SDS011;11523;50.390;8.072;2023-04-15T05:40:35;5.53;;;3.90;;
22711;SDS011;11523;50.390;8.072;2023-04-15T05:43:01;6.72;;;3.92;;
22711;SDS011;11523;50.390;8.072;2023-04-15T05:45:27;7.32;;;4.47;;
22711;SDS011;11523;50.390;8.072;2023-04-15T05:47:53;8.20;;;4.28;;
22711;SDS011;11523;50.390;8.072;2023-04-15T05:50:19;6.70;;;4.10;;
22711;SDS011;11523;50.390;8.072;2023-04-15T05:52:45;5.75;;;3.78;;
22711;SDS011;11523;50.390;8.072;2023-04-15T05:55:11;6.75;;;4.20;;
22711;SDS011;11523;50.390;8.072;2023-04-15T05:57:38;7.57;;;4.03;;
22711;SDS011;11523;50.390;8.072;2023-04-15T06:00:04;5.68;;;3.45;;
22711;SDS011;11523;50.390;8.072;2023-04-15T06:02:31;5.15;;;3.65;;
22711;SDS011;11523;50.390;8.072;2023-04-15T06:04:57;5.68;;;3.90;;
22711;SDS011;11523;50.390;8.072;2023-04-15T06:07:23;6.45;;;3.80;;
22711;SDS011;11523;50.390;8.072;2023-04-15T06:09:49;8.38;;;3.53;;
22711;SDS011;11523;50.390;8.072;2023-04-15T06:12:15;6.60;;;3.38;;
22711;SDS011;11523;50.390;8.072;2023-04-15T06:14:41;6.25;;;3.28;;
22711;SDS011;11523;50.390;8.072;2023-04-15T06:17:07;6.28;;;3.80;;
22711;SDS011;11523;50.390;8.072;2023-04-15T06:19:33;6.22;;;3.30;;
22711;SDS011;11523;50.390;8.072;2023-04-15T06:22:00;8.73;;;3.30;;
22711;SDS011;11523;50.390;8.072;2023-04-15T06:24:26;6.78;;;3.38;;
22711;SDS011;11523;50.390;8.072;2023-04-15T06:26:52;6.10;;;3.53;;
22711;SDS011;11523;50.390;8.072;2023-04-15T06:29:18;6.72;;;3.45;;
22711;SDS011;11523;50.390;8.072;2023-04-15T06:31:46;8.82;;;3.90;;
22711;SDS011;11523;50.390;8.072;2023-04-15T06:34:12;7.50;;;4.15;;
22711;SDS011;11523;50.390;8.072;2023-04-15T06:36:38;6.03;;;3.45;;
22711;SDS011;11523;50.390;8.072;2023-04-15T06:39:04;9.10;;;3.95;;
22711;SDS011;11523;50.390;8.072;2023-04-15T06:41:29;4.97;;;3.45;;
22711;SDS011;11523;50.390;8.072;2023-04-15T06:43:55;7.82;;;4.60;;
22711;SDS011;11523;50.390;8.072;2023-04-15T06:46:21;6.15;;;4.43;;
22711;SDS011;11523;50.390;8.072;2023-04-15T06:48:47;7.07;;;4.40;;
22711;SDS011;11523;50.390;8.072;2023-04-15T06:51:13;10.05;;;5.05;;
22711;SDS011;11523;50.390;8.072;2023-04-15T06:53:39;5.55;;;4.68;;
22711;SDS011;11523;50.390;8.072;2023-04-15T06:56:07;6.25;;;4.50;;
22711;SDS011;11523;50.390;8.072;2023-04-15T06:58:33;7.75;;;5.07;;
22711;SDS011;11523;50.390;8.072;2023-04-15T07:00:59;8.82;;;4.45;;
22711;SDS011;11523;50.390;8.072;2023-04-15T07:03:25;10.65;;;4.55;;
22711;SDS011;11523;50.390;8.072;2023-04-15T07:05:51;7.25;;;4.65;;
22711;SDS011;11523;50.390;8.072;2023-04-15T07:08:18;9.75;;;5.00;;
22711;SDS011;11523;50.390;8.072;2023-04-15T07:10:45;7.25;;;5.32;;
22711;SDS011;11523;50.390;8.072;2023-04-15T07:13:11;8.02;;;4.60;;
22711;SDS011;11523;50.390;8.072;2023-04-15T07:15:37;6.88;;;5.10;;
22711;SDS011;11523;50.390;8.072;2023-04-15T07:18:03;8.25;;;5.00;;
22711;SDS011;11523;50.390;8.072;2023-04-15T07:20:28;7.35;;;5.05;;
22711;SDS011;11523;50.390;8.072;2023-04-15T07:22:55;9.55;;;5.80;;
22711;SDS011;11523;50.390;8.072;2023-04-15T07:25:21;9.93;;;5.00;;
22711;SDS011;11523;50.390;8.072;2023-04-15T07:27:47;7.88;;;5.18;;
22711;SDS011;11523;50.390;8.072;2023-04-15T07:30:13;13.57;;;5.05;;
22711;SDS011;11523;50.390;8.072;2023-04-15T07:32:39;10.10;;;5.20;;
22711;SDS011;11523;50.390;8.072;2023-04-15T07:35:06;8.20;;;5.18;;
22711;SDS011;11523;50.390;8.072;2023-04-15T07:37:33;14.68;;;5.90;;
22711;SDS011;11523;50.390;8.072;2023-04-15T07:40:00;13.20;;;5.40;;
22711;SDS011;11523;50.390;8.072;2023-04-15T07:42:26;10.23;;;5.85;;
22711;SDS011;11523;50.390;8.072;2023-04-15T07:44:53;9.15;;;5.68;;
22711;SDS011;11523;50.390;8.072;2023-04-15T07:47:19;8.00;;;5.72;;
22711;SDS011;11523;50.390;8.072;2023-04-15T07:49:45;10.35;;;5.80;;
22711;SDS011;11523;50.390;8.072;2023-04-15T07:52:11;14.38;;;6.10;;
22711;SDS011;11523;50.390;8.072;2023-04-15T07:54:37;12.02;;;5.50;;
22711;SDS011;11523;50.390;8.072;2023-04-15T07:57:03;8.52;;;5.57;;
22711;SDS011;11523;50.390;8.072;2023-04-15T07:59:29;11.43;;;6.80;;
22711;SDS011;11523;50.390;8.072;2023-04-15T08:01:57;11.90;;;5.70;;
22711;SDS011;11523;50.390;8.072;2023-04-15T08:04:23;7.78;;;5.57;;
22711;SDS011;11523;50.390;8.072;2023-04-15T08:06:49;8.52;;;5.60;;
22711;SDS011;11523;50.390;8.072;2023-04-15T08:09:16;14.10;;;6.45;;
22711;SDS011;11523;50.390;8.072;2023-04-15T08:11:42;10.68;;;5.70;;
22711;SDS011;11523;50.390;8.072;2023-04-15T08:14:08;14.73;;;6.63;;
22711;SDS011;11523;50.390;8.072;2023-04-15T08:16:34;9.75;;;5.65;;
22711;SDS011;11523;50.390;8.072;2023-04-15T08:19:01;9.80;;;5.47;;
22711;SDS011;11523;50.390;8.072;2023-04-15T08:21:27;10.05;;;5.57;;
22711;SDS011;11523;50.390;8.072;2023-04-15T08:23:54;10.48;;;5.78;;
22711;SDS011;11523;50.390;8.072;2023-04-15T08:26:21;7.97;;;5.53;;
22711;SDS011;11523;50.390;8.072;2023-04-15T08:28:47;11.10;;;5.75;;
22711;SDS011;11523;50.390;8.072;2023-04-15T08:31:14;7.53;;;6.20;;
22711;SDS011;11523;50.390;8.072;2023-04-15T08:33:40;10.65;;;5.57;;
22711;SDS011;11523;50.390;8.072;2023-04-15T08:36:06;15.05;;;5.95;;
22711;SDS011;11523;50.390;8.072;2023-04-15T08:38:32;9.43;;;6.18;;
22711;SDS011;11523;50.390;8.072;2023-04-15T08:41:03;7.78;;;5.65;;
22711;SDS011;11523;50.390;8.072;2023-04-15T08:43:37;13.10;;;5.95;;
22711;SDS011;11523;50.390;8.072;2023-04-15T08:46:07;9.50;;;5.78;;
22711;SDS011;11523;50.390;8.072;2023-04-15T08:48:34;10.35;;;6.05;;
22711;SDS011;11523;50.390;8.072;2023-04-15T08:51:04;14.65;;;6.18;;
22711;SDS011;11523;50.390;8.072;2023-04-15T08:53:31;6.50;;;5.28;;
22711;SDS011;11523;50.390;8.072;2023-04-15T08:55:57;8.45;;;5.70;;
22711;SDS011;11523;50.390;8.072;2023-04-15T08:58:25;10.60;;;5.25;;
22711;SDS011;11523;50.390;8.072;2023-04-15T09:00:51;8.27;;;5.75;;
22711;SDS011;11523;50.390;8.072;2023-04-15T09:03:17;7.47;;;5.75;;
22711;SDS011;11523;50.390;8.072;2023-04-15T09:05:43;7.93;;;5.22;;
22711;SDS011;11523;50.390;8.072;2023-04-15T09:08:09;10.38;;;5.80;;
22711;SDS011;11523;50.390;8.072;2023-04-15T09:10:35;12.00;;;5.50;;
22711;SDS011;11523;50.390;8.072;2023-04-15T09:13:01;10.43;;;5.22;;
22711;SDS011;11523;50.390;8.072;2023-04-15T09:15:28;7.80;;;5.10;;
22711;SDS011;11523;50.390;8.072;2023-04-15T09:17:55;7.40;;;4.85;;
22711;SDS011;11523;50.390;8.072;2023-04-15T09:20:21;8.35;;;5.22;;
22711;SDS011;11523;50.390;8.072;2023-04-15T09:22:48;8.10;;;5.07;;
22711;SDS011;11523;50.390;8.072;2023-04-15T09:27:50;7.57;;;4.15;;
22711;SDS011;11523;50.390;8.072;2023-04-15T09:30:16;9.43;;;4.47;;
22711;SDS011;11523;50.390;8.072;2023-04-15T09:32:49;11.52;;;4.90;;
22711;SDS011;11523;50.390;8.072;2023-04-15T09:35:15;10.18;;;4.68;;
22711;SDS011;11523;50.390;8.072;2023-04-15T09:37:41;6.32;;;3.42;;
22711;SDS011;11523;50.390;8.072;2023-04-15T09:40:07;5.45;;;2.65;;
22711;SDS011;11523;50.390;8.072;2023-04-15T09:42:34;4.55;;;2.40;;
22711;SDS011;11523;50.390;8.072;2023-04-15T09:45:07;4.65;;;2.30;;
22711;SDS011;11523;50.390;8.072;2023-04-15T09:47:33;5.78;;;2.20;;
22711;SDS011;11523;50.390;8.072;2023-04-15T09:49:59;3.80;;;1.95;;
22711;SDS011;11523;50.390;8.072;2023-04-15T09:52:25;1.80;;;1.52;;
22711;SDS011;11523;50.390;8.072;2023-04-15T09:54:55;4.55;;;1.60;;
22711;SDS011;11523;50.390;8.072;2023-04-15T09:57:21;2.72;;;1.40;;
22711;SDS011;11523;50.390;8.072;2023-04-15T09:59:48;3.10;;;1.52;;
22711;SDS011;11523;50.390;8.072;2023-04-15T10:02:14;2.05;;;1.20;;
22711;SDS011;11523;50.390;8.072;2023-04-15T10:04:40;3.38;;;1.02;;
22711;SDS011;11523;50.390;8.072;2023-04-15T10:07:10;2.38;;;1.38;;
22711;SDS011;11523;50.390;8.072;2023-04-15T10:09:39;2.97;;;1.65;;
22711;SDS011;11523;50.390;8.072;2023-04-15T10:12:05;2.22;;;1.30;;
22711;SDS011;11523;50.390;8.072;2023-04-15T10:14:33;1.83;;;1.50;;
22711;SDS011;11523;50.390;8.072;2023-04-15T10:17:03;1.75;;;1.35;;
22711;SDS011;11523;50.390;8.072;2023-04-15T10:19:33;1.77;;;1.48;;
22711;SDS011;11523;50.390;8.072;2023-04-15T10:22:01;2.65;;;1.45;;
22711;SDS011;11523;50.390;8.072;2023-04-15T10:24:27;3.67;;;1.58;;
22711;SDS011;11523;50.390;8.072;2023-04-15T10:26:53;2.33;;;1.55;;
22711;SDS011;11523;50.390;8.072;2023-04-15T10:29:19;1.52;;;1.30;;
22711;SDS011;11523;50.390;8.072;2023-04-15T10:31:45;1.80;;;1.27;;
22711;SDS011;11523;50.390;8.072;2023-04-15T10:34:12;3.17;;;1.42;;
22711;SDS011;11523;50.390;8.072;2023-04-15T10:36:39;2.05;;;1.45;;
22711;SDS011;11523;50.390;8.072;2023-04-15T10:39:51;1.10;;;1.00;;
22711;SDS011;11523;50.390;8.072;2023-04-15T10:44:37;2.17;;;1.30;;
22711;SDS011;11523;50.390;8.072;2023-04-15T10:47:05;1.20;;;0.98;;
22711;SDS011;11523;50.390;8.072;2023-04-15T10:49:32;1.25;;;0.90;;
22711;SDS011;11523;50.390;8.072;2023-04-15T10:51:58;0.85;;;0.82;;
22711;SDS011;11523;50.390;8.072;2023-04-15T10:54:30;1.65;;;1.10;;
22711;SDS011;11523;50.390;8.072;2023-04-15T10:59:30;2.78;;;1.20;;
22711;SDS011;11523;50.390;8.072;2023-04-15T11:01:59;1.60;;;1.30;;
22711;SDS011;11523;50.390;8.072;2023-04-15T11:07:10;0.75;;;0.75;;
22711;SDS011;11523;50.390;8.072;2023-04-15T11:09:36;1.77;;;1.20;;
22711;SDS011;11523;50.390;8.072;2023-04-15T11:12:09;0.98;;;0.85;;
22711;SDS011;11523;50.390;8.072;2023-04-15T11:14:39;1.45;;;1.13;;
22711;SDS011;11523;50.390;8.072;2023-04-15T11:17:07;2.15;;;1.23;;
22711;SDS011;11523;50.390;8.072;2023-04-15T11:19:36;0.93;;;0.88;;
22711;SDS011;11523;50.390;8.072;2023-04-15T11:22:06;1.02;;;0.93;;
22711;SDS011;11523;50.390;8.072;2023-04-15T11:24:32;1.60;;;1.10;;
22711;SDS011;11523;50.390;8.072;2023-04-15T11:27:00;2.03;;;1.45;;
22711;SDS011;11523;50.390;8.072;2023-04-15T11:29:30;1.85;;;1.70;;
22711;SDS011;11523;50.390;8.072;2023-04-15T11:32:08;3.20;;;1.67;;
22711;SDS011;11523;50.390;8.072;2023-04-15T11:34:34;1.40;;;1.30;;
22711;SDS011;11523;50.390;8.072;2023-04-15T11:37:04;1.90;;;1.50;;
22711;SDS011;11523;50.390;8.072;2023-04-15T11:39:31;3.15;;;1.60;;
22711;SDS011;11523;50.390;8.072;2023-04-15T11:41:57;1.80;;;1.58;;
22711;SDS011;11523;50.390;8.072;2023-04-15T11:44:23;2.67;;;1.40;;
22711;SDS011;11523;50.390;8.072;2023-04-15T11:46:49;3.75;;;1.70;;
22711;SDS011;11523;50.390;8.072;2023-04-15T11:49:25;3.00;;;1.70;;
22711;SDS011;11523;50.390;8.072;2023-04-15T11:51:51;1.85;;;1.65;;
22711;SDS011;11523;50.390;8.072;2023-04-15T11:54:17;1.67;;;1.58;;
22711;SDS011;11523;50.390;8.072;2023-04-15T11:56:48;1.75;;;1.65;;
22711;SDS011;11523;50.390;8.072;2023-04-15T11:59:14;2.53;;;1.40;;
22711;SDS011;11523;50.390;8.072;2023-04-15T12:01:40;3.40;;;1.50;;
22711;SDS011;11523;50.390;8.072;2023-04-15T12:04:11;2.95;;;1.40;;
22711;SDS011;11523;50.390;8.072;2023-04-15T12:06:37;1.40;;;1.17;;
22711;SDS011;11523;50.390;8.072;2023-04-15T12:11:33;1.67;;;1.50;;
22711;SDS011;11523;50.390;8.072;2023-04-15T12:14:19;1.60;;;1.40;;
22711;SDS011;11523;50.390;8.072;2023-04-15T12:16:47;1.88;;;1.52;;
22711;SDS011;11523;50.390;8.072;2023-04-15T12:19:14;2.42;;;1.80;;
22711;SDS011;11523;50.390;8.072;2023-04-15T12:21:41;2.10;;;1.48;;
22711;SDS011;11523;50.390;8.072;2023-04-15T12:24:09;1.55;;;1.45;;
22711;SDS011;11523;50.390;8.072;2023-04-15T12:26:46;2.80;;;1.73;;
22711;SDS011;11523;50.390;8.072;2023-04-15T12:29:13;2.70;;;1.42;;
22711;SDS011;11523;50.390;8.072;2023-04-15T12:31:47;1.80;;;1.70;;
22711;SDS011;11523;50.390;8.072;2023-04-15T12:34:14;1.70;;;1.60;;
22711;SDS011;11523;50.390;8.072;2023-04-15T12:36:40;1.80;;;1.70;;
22711;SDS011;11523;50.390;8.072;2023-04-15T12:39:07;1.90;;;1.70;;
22711;SDS011;11523;50.390;8.072;2023-04-15T12:41:33;2.92;;;1.60;;
22711;SDS011;11523;50.390;8.072;2023-04-15T12:43:59;1.73;;;1.63;;
22711;SDS011;11523;50.390;8.072;2023-04-15T12:46:25;1.65;;;1.55;;
22711;SDS011;11523;50.390;8.072;2023-04-15T12:48:52;2.58;;;1.65;;
22711;SDS011;11523;50.390;8.072;2023-04-15T12:51:18;2.38;;;2.17;;
22711;SDS011;11523;50.390;8.072;2023-04-15T12:53:47;2.00;;;1.90;;
22711;SDS011;11523;50.390;8.072;2023-04-15T12:56:13;2.10;;;1.90;;
22711;SDS011;11523;50.390;8.072;2023-04-15T12:58:39;2.53;;;2.20;;
22711;SDS011;11523;50.390;8.072;2023-04-15T13:01:05;2.65;;;2.08;;
22711;SDS011;11523;50.390;8.072;2023-04-15T13:03:31;1.92;;;1.75;;
22711;SDS011;11523;50.390;8.072;2023-04-15T13:05:57;1.55;;;1.45;;
22711;SDS011;11523;50.390;8.072;2023-04-15T13:08:24;2.00;;;1.40;;
22711;SDS011;11523;50.390;8.072;2023-04-15T13:10:51;2.00;;;1.80;;
22711;SDS011;11523;50.390;8.072;2023-04-15T13:13:17;1.70;;;1.60;;
22711;SDS011;11523;50.390;8.072;2023-04-15T13:15:43;1.60;;;1.50;;
22711;SDS011;11523;50.390;8.072;2023-04-15T13:18:09;1.88;;;1.77;;
22711;SDS011;11523;50.390;8.072;2023-04-15T13:20:35;1.75;;;1.38;;
22711;SDS011;11523;50.390;8.072;2023-04-15T13:23:01;1.95;;;1.75;;
22711;SDS011;11523;50.390;8.072;2023-04-15T13:25:27;2.35;;;2.00;;
22711;SDS011;11523;50.390;8.072;2023-04-15T13:27:53;1.85;;;1.75;;
22711;SDS011;11523;50.390;8.072;2023-04-15T13:30:19;2.80;;;2.13;;
22711;SDS011;11523;50.390;8.072;2023-04-15T13:32:45;2.78;;;2.58;;
22711;SDS011;11523;50.390;8.072;2023-04-15T13:35:11;2.55;;;2.35;;
22711;SDS011;11523;50.390;8.072;2023-04-15T13:37:37;3.00;;;2.63;;
22711;SDS011;11523;50.390;8.072;2023-04-15T13:40:03;3.55;;;2.40;;
22711;SDS011;11523;50.390;8.072;2023-04-15T13:42:31;3.40;;;2.78;;
22711;SDS011;11523;50.390;8.072;2023-04-15T13:44:57;2.67;;;2.47;;
22711;SDS011;11523;50.390;8.072;2023-04-15T13:47:23;5.57;;;4.05;;
22711;SDS011;11523;50.390;8.072;2023-04-15T13:49:49;6.15;;;4.82;;
22711;SDS011;11523;50.390;8.072;2023-04-15T13:52:16;5.53;;;4.93;;
22711;SDS011;11523;50.390;8.072;2023-04-15T13:54:42;5.50;;;5.00;;
22711;SDS011;11523;50.390;8.072;2023-04-15T13:57:08;6.57;;;5.18;;
22711;SDS011;11523;50.390;8.072;2023-04-15T13:59:34;6.03;;;5.43;;
22711;SDS011;11523;50.390;8.072;2023-04-15T14:02:00;9.15;;;5.72;;
22711;SDS011;11523;50.390;8.072;2023-04-15T14:04:26;8.07;;;5.40;;
22711;SDS011;11523;50.390;8.072;2023-04-15T14:06:52;6.18;;;5.32;;
22711;SDS011;11523;50.390;8.072;2023-04-15T14:09:18;6.15;;;5.25;;
22711;SDS011;11523;50.390;8.072;2023-04-15T14:11:46;6.35;;;5.38;;
22711;SDS011;11523;50.390;8.072;2023-04-15T14:14:12;5.68;;;4.68;;
22711;SDS011;11523;50.390;8.072;2023-04-15T14:16:38;5.20;;;3.95;;
22711;SDS011;11523;50.390;8.072;2023-04-15T14:19:04;4.75;;;4.13;;
22711;SDS011;11523;50.390;8.072;2023-04-15T14:21:30;4.15;;;3.75;;
22711;SDS011;11523;50.390;8.072;2023-04-15T14:23:56;3.83;;;3.50;;
22711;SDS011;11523;50.390;8.072;2023-04-15T14:26:22;3.90;;;3.60;;
22711;SDS011;11523;50.390;8.072;2023-04-15T14:28:48;3.38;;;3.08;;
22711;SDS011;11523;50.390;8.072;2023-04-15T14:31:14;4.10;;;3.50;;
22711;SDS011;11523;50.390;8.072;2023-04-15T14:33:40;3.90;;;3.00;;
22711;SDS011;11523;50.390;8.072;2023-04-15T14:36:07;4.22;;;3.15;;
22711;SDS011;11523;50.390;8.072;2023-04-15T14:38:34;7.22;;;3.75;;
22711;SDS011;11523;50.390;8.072;2023-04-15T14:41:04;4.03;;;3.63;;
22711;SDS011;11523;50.390;8.072;2023-04-15T14:43:37;6.43;;;4.13;;
22711;SDS011;11523;50.390;8.072;2023-04-15T14:46:03;2.70;;;2.38;;
22711;SDS011;11523;50.390;8.072;2023-04-15T14:48:29;4.18;;;3.65;;
22711;SDS011;11523;50.390;8.072;2023-04-15T14:50:56;3.83;;;3.53;;
22711;SDS011;11523;50.390;8.072;2023-04-15T14:53:22;5.05;;;4.53;;
22711;SDS011;11523;50.390;8.072;2023-04-15T14:55:48;5.50;;;4.90;;